Time;durP1;ratioP1;P1;durP2;ratioP2;P2;SDS_P1;SDS_P2;PMS_P1;PMS_P2;Temp;Humidity;BMP_temperature;BMP_pressure;BME280_temperature;BME280_humidity;BME280_pressure;Samples;Min_cycle;Max_cycle;Signal;HPM_P1;HPM_P2
2021/03/26 00:02:05;;;;;;;64.97;31.45;;;;;;;3.65;68.79;100874.91;5116848;28;20436;-81
2021/03/26 00:04:30;;;;;;;64.45;33.35;;;;;;;3.63;68.68;100863.53;5098796;28;20043;-81
2021/03/26 00:06:56;;;;;;;74.63;37.53;;;;;;;3.66;69.19;100871.38;5117058;28;20055;-78
2021/03/26 00:09:24;;;;;;;71.57;34.72;;;;;;;3.59;69.50;100878.56;5117290;28;20118;-79
2021/03/26 00:11:52;;;;;;;72.05;36.42;;;;;;;3.54;70.33;100871.66;5117713;28;20035;-79
2021/03/26 00:14:18;;;;;;;73.00;35.40;;;;;;;3.37;70.13;100849.13;5100145;28;20470;-80
2021/03/26 00:16:43;;;;;;;75.13;37.13;;;;;;;3.52;70.40;100876.97;5116918;28;20092;-74
2021/03/26 00:19:09;;;;;;;73.43;35.70;;;;;;;3.29;70.67;100851.09;5116705;28;20036;-73
2021/03/26 00:21:35;;;;;;;76.07;34.60;;;;;;;3.55;70.45;100873.38;5097915;28;20032;-74
2021/03/26 00:24:02;;;;;;;80.15;37.92;;;;;;;3.54;70.50;100871.66;5116241;28;20042;-73
2021/03/26 00:26:28;;;;;;;73.57;36.60;;;;;;;3.40;70.45;100854.34;5116114;28;20066;-74
2021/03/26 00:28:54;;;;;;;69.30;36.15;;;;;;;3.59;70.22;100875.06;5115870;28;20067;-79
2021/03/26 00:31:19;;;;;;;71.97;36.53;;;;;;;3.81;69.28;100876.31;5116316;28;20036;-77
2021/03/26 00:33:45;;;;;;;68.47;35.15;;;;;;;3.80;69.20;100874.59;5097670;28;20032;-78
2021/03/26 00:36:12;;;;;;;69.57;35.63;;;;;;;3.78;69.48;100871.13;5097988;28;20032;-78
2021/03/26 00:38:38;;;;;;;72.93;35.80;;;;;;;3.83;68.98;100869.22;5097556;28;20386;-77
2021/03/26 00:41:04;;;;;;;71.47;35.45;;;;;;;3.82;68.92;100872.78;5115436;28;20047;-83
2021/03/26 00:43:31;;;;;;;76.55;37.00;;;;;;;3.74;68.96;100872.06;5115892;28;20035;-76
2021/03/26 00:45:57;;;;;;;72.30;35.25;;;;;;;3.69;69.14;100876.59;5115570;28;20082;-74
2021/03/26 00:48:23;;;;;;;72.78;35.45;;;;;;;3.75;69.03;100881.72;5097800;28;20035;-75
2021/03/26 00:50:52;;;;;;;69.78;33.95;;;;;;;3.70;68.37;100862.50;5115375;28;20027;-75
2021/03/26 00:53:22;;;;;;;70.03;33.83;;;;;;;3.79;68.13;100856.16;5115824;28;20046;-75
2021/03/26 00:55:49;;;;;;;64.85;32.80;;;;;;;3.78;68.22;100871.13;5115339;28;20114;-75
2021/03/26 00:58:15;;;;;;;69.50;34.05;;;;;;;3.82;68.56;100883.34;5115502;28;20130;-74
2021/03/26 01:00:41;;;;;;;76.93;35.03;;;;;;;3.58;68.90;100865.41;5115402;28;20481;-74
2021/03/26 01:03:08;;;;;;;72.63;34.72;;;;;;;3.58;69.32;100882.13;5097537;28;20038;-79
2021/03/26 01:05:36;;;;;;;73.22;34.25;;;;;;;3.63;68.70;100876.72;5115554;28;20043;-78
2021/03/26 01:08:02;;;;;;;70.80;34.25;;;;;;;3.61;68.89;100876.75;5115379;28;20042;-78
2021/03/26 01:10:32;;;;;;;67.90;34.00;;;;;;;3.15;69.00;100818.84;5116148;28;20036;-78
2021/03/26 01:12:59;;;;;;;77.13;35.85;;;;;;;3.60;68.50;100874.16;5115133;28;20496;-80
2021/03/26 01:15:26;;;;;;;70.22;35.10;;;;;;;3.36;69.60;100873.75;5080471;28;20448;-81
2021/03/26 01:17:54;;;;;;;72.47;34.08;;;;;;;3.54;69.14;100884.84;5115194;28;20081;-79
2021/03/26 01:20:25;;;;;;;69.15;32.58;;;;;;;3.59;69.07;100885.63;5115502;28;20032;-78
2021/03/26 01:22:50;;;;;;;64.63;31.58;;;;;;;3.34;69.45;100853.59;5096863;28;20035;-78
2021/03/26 01:25:23;;;;;;;67.53;30.75;;;;;;;3.45;69.25;100870.06;5115259;28;20043;-72
2021/03/26 01:27:49;;;;;;;65.78;32.92;;;;;;;2.99;69.97;100825.31;5096591;28;20088;-73
2021/03/26 01:30:18;;;;;;;62.75;31.02;;;;;;;3.27;69.75;100844.09;5080141;28;20040;-72
2021/03/26 01:32:44;;;;;;;66.70;31.35;;;;;;;3.34;70.09;100869.44;5114726;28;20024;-73
2021/03/26 01:35:11;;;;;;;66.43;32.63;;;;;;;3.21;70.35;100879.38;5114688;28;20432;-74
2021/03/26 01:37:36;;;;;;;65.25;31.95;;;;;;;3.04;71.07;100870.91;5114663;28;20032;-75
2021/03/26 01:40:07;;;;;;;63.15;31.50;;;;;;;2.76;71.28;100849.50;5096519;28;20147;-73
2021/03/26 01:42:35;;;;;;;68.63;31.70;;;;;;;2.55;71.85;100830.56;5114632;28;20046;-73
2021/03/26 01:45:03;;;;;;;69.07;33.45;;;;;;;2.69;71.82;100861.91;5114781;28;20126;-73
2021/03/26 01:47:29;;;;;;;68.13;33.40;;;;;;;2.77;71.79;100865.25;5114989;28;20079;-77
2021/03/26 01:49:55;;;;;;;66.93;33.90;;;;;;;2.82;71.37;100881.88;5114303;28;20655;-78
2021/03/26 01:52:21;;;;;;;71.88;33.63;;;;;;;2.94;70.73;100890.44;5114163;28;20034;-78
2021/03/26 01:54:46;;;;;;;69.45;33.78;;;;;;;2.77;71.35;100894.25;5114235;28;20466;-76
2021/03/26 01:57:13;;;;;;;73.53;34.20;;;;;;;2.44;72.23;100863.25;5114772;28;20036;-76
2021/03/26 01:59:40;;;;;;;65.63;32.88;;;;;;;2.70;71.77;100897.91;5114416;28;20024;-78
2021/03/26 02:02:10;;;;;;;67.07;33.03;;;;;;;2.32;72.21;100853.81;5114351;28;20478;-76
2021/03/26 02:04:40;;;;;;;67.22;32.85;;;;;;;2.68;71.73;100886.50;5114680;28;20039;-76
2021/03/26 02:07:06;;;;;;;68.10;33.95;;;;;;;2.58;71.45;100867.34;5114505;28;20027;-76
2021/03/26 02:09:37;;;;;;;67.60;32.80;;;;;;;2.60;72.13;100888.41;5096055;28;20027;-75
2021/03/26 02:12:07;;;;;;;67.10;33.53;;;;;;;2.27;72.53;100872.28;5095800;28;20030;-74
2021/03/26 02:14:43;;;;;;;74.50;34.97;;;;;;;2.53;71.98;100873.63;5113799;28;20034;-75
2021/03/26 02:17:13;;;;;;;78.07;36.40;;;;;;;2.77;71.68;100888.97;5114336;28;20489;-77
2021/03/26 02:19:47;;;;;;;74.20;34.30;;;;;;;2.74;71.83;100885.53;5114072;28;20489;-77
2021/03/26 02:22:13;;;;;;;;;;;;;;;2.60;72.38;100896.31;5114348;28;20462;-71
2021/03/26 02:24:41;;;;;;;71.13;35.33;;;;;;;2.36;72.40;100878.28;5113770;28;19912;-76
2021/03/26 02:27:11;;;;;;;72.00;35.03;;;;;;;2.46;72.22;100877.25;5113810;28;20034;-76
2021/03/26 02:29:37;;;;;;;79.30;36.30;;;;;;;2.37;72.01;100848.44;5113433;28;20023;-76
2021/03/26 02:32:03;;;;;;;75.82;36.60;;;;;;;2.59;72.53;100911.22;5095353;28;20130;-77
2021/03/26 02:34:29;;;;;;;75.13;32.83;;;;;;;2.57;72.57;100891.09;5113788;28;20107;-75
2021/03/26 02:37:08;;;;;;;70.63;32.92;;;;;;;2.37;72.73;100875.63;5113449;28;20477;-75
2021/03/26 02:39:41;;;;;;;67.40;32.22;;;;;;;2.53;72.60;100897.31;5113627;28;20032;-75
2021/03/26 02:42:18;;;;;;;65.80;32.28;;;;;;;2.53;72.69;100889.44;5114103;28;20035;-78
2021/03/26 02:44:55;;;;;;;62.58;32.33;;;;;;;2.05;73.05;100855.09;5113662;28;20054;-77
2021/03/26 02:47:51;;;;;;;64.95;31.23;;;;;;;2.34;73.45;100904.66;5113924;28;20106;-78
2021/03/26 02:50:23;;;;;;;68.88;32.53;;;;;;;2.26;73.19;100881.09;5095317;28;20032;-78
2021/03/26 02:53:02;;;;;;;71.68;32.40;;;;;;;2.37;73.21;100914.25;5095129;28;20126;-81
2021/03/26 02:55:46;;;;;;;71.85;32.85;;;;;;;2.43;73.00;100919.44;5113587;28;20027;-82
2021/03/26 02:58:20;;;;;;;69.82;32.45;;;;;;;2.23;73.11;100886.41;5113707;28;20028;-82
2021/03/26 03:00:57;;;;;;;69.82;32.55;;;;;;;2.30;73.39;100914.34;5114015;28;20058;-83
2021/03/26 03:03:26;;;;;;;70.60;33.90;;;;;;;2.22;73.49;100921.53;5113568;28;20038;-81
2021/03/26 03:06:02;;;;;;;68.82;32.08;;;;;;;2.19;73.45;100920.69;5113299;28;20034;-81
2021/03/26 03:08:32;;;;;;;68.57;32.63;;;;;;;2.10;73.92;100912.91;5113818;28;20028;-80
2021/03/26 03:11:01;;;;;;;63.47;30.88;;;;;;;2.05;73.85;100918.25;5094938;28;20031;-79
2021/03/26 03:13:36;;;;;;;58.45;29.23;;;;;;;2.09;73.84;100925.22;5113581;28;20031;-81
2021/03/26 03:16:24;;;;;;;66.43;31.92;;;;;;;2.01;74.27;100927.06;5112979;28;20885;-78
2021/03/26 03:18:58;;;;;;;64.38;29.33;;;;;;;2.04;73.74;100921.78;5112739;28;20490;-79
2021/03/26 03:21:34;;;;;;;63.67;30.38;;;;;;;1.75;74.43;100881.88;5113181;28;20036;-81
2021/03/26 03:24:15;;;;;;;58.22;29.40;;;;;;;1.93;74.42;100918.41;5112986;28;20038;-80
2021/03/26 03:26:46;;;;;;;59.75;30.35;;;;;;;2.01;74.23;100934.97;5113803;28;20030;-78
2021/03/26 03:29:27;;;;;;;64.32;31.13;;;;;;;1.84;75.04;100937.00;5113333;28;20027;-80
2021/03/26 03:31:59;;;;;;;59.45;29.23;;;;;;;1.79;75.21;100936.16;5112740;28;20027;-81
2021/03/26 03:34:38;;;;;;;69.72;31.73;;;;;;;1.68;75.50;100913.50;5113281;28;20085;-79
2021/03/26 03:37:28;;;;;;;68.00;31.65;;;;;;;1.65;75.57;100913.56;5113429;28;20035;-82
2021/03/26 03:40:14;;;;;;;65.90;31.92;;;;;;;1.61;75.69;100913.59;5112930;28;20449;-78
2021/03/26 03:42:48;;;;;;;61.15;31.30;;;;;;;1.52;76.30;100924.25;5113116;28;20039;-80
2021/03/26 03:45:17;;;;;;;;;;;;;;;1.65;76.48;100939.00;5095616;28;20058;-78
2021/03/26 03:48:14;;;;;;;61.75;29.05;;;;;;;1.50;76.50;100920.75;5113072;28;19926;-80
2021/03/26 03:50:55;;;;;;;64.43;31.73;;;;;;;1.61;76.55;100942.53;5113229;28;20062;-79
2021/03/26 03:53:27;;;;;;;68.80;32.70;;;;;;;1.63;76.39;100940.75;5113058;28;20474;-77
2021/03/26 03:56:15;;;;;;;66.78;31.15;;;;;;;1.33;77.22;100926.22;5113337;28;20066;-78
2021/03/26 03:58:44;;;;;;;70.50;32.33;;;;;;;1.43;77.22;100927.84;5113064;28;20027;-79
2021/03/26 04:01:17;;;;;;;73.65;33.47;;;;;;;1.39;77.67;100936.69;5113211;28;20088;-78
2021/03/26 04:03:51;;;;;;;68.88;33.03;;;;;;;1.41;77.53;100937.53;5095002;28;20497;-78
2021/03/26 04:06:23;;;;;;;67.68;32.78;;;;;;;1.40;76.90;100917.38;5113071;28;20042;-76
2021/03/26 04:08:58;;;;;;;71.80;32.80;;;;;;;1.59;76.94;100945.19;5112519;28;20039;-77
2021/03/26 04:11:36;;;;;;;66.05;32.80;;;;;;;1.60;76.50;100930.28;5112741;28;20050;-78
2021/03/26 04:14:15;;;;;;;73.35;33.22;;;;;;;1.55;76.77;100938.25;5112607;28;20047;-77
2021/03/26 04:16:45;;;;;;;64.65;32.55;;;;;;;1.47;76.37;100918.19;5116574;28;20032;-78
2021/03/26 04:19:16;;;;;;;67.90;32.97;;;;;;;1.56;76.77;100950.50;5098084;28;20035;-78
2021/03/26 04:21:45;;;;;;;68.00;31.60;;;;;;;1.48;76.43;100923.41;5097970;28;20110;-76
2021/03/26 04:24:35;;;;;;;70.90;33.53;;;;;;;1.42;76.38;100926.97;5116388;28;20031;-76
2021/03/26 04:27:11;;;;;;;69.20;31.95;;;;;;;1.62;76.20;100949.53;5116065;28;20031;-76
2021/03/26 04:29:42;;;;;;;68.75;32.35;;;;;;;1.58;76.23;100953.97;5116338;28;20474;-75
2021/03/26 04:32:10;;;;;;;66.93;32.67;;;;;;;1.40;76.19;100928.75;5115734;28;20146;-76
2021/03/26 04:34:38;;;;;;;69.97;33.20;;;;;;;1.51;76.87;100952.28;5115977;28;20457;-77
2021/03/26 04:37:07;;;;;;;65.13;33.40;;;;;;;1.57;76.37;100960.13;5115844;28;20085;-77
2021/03/26 04:39:44;;;;;;;70.93;33.53;;;;;;;1.54;76.56;100957.50;5115966;28;20020;-77
2021/03/26 04:42:18;;;;;;;69.72;32.35;;;;;;;1.48;76.97;100954.97;5115638;28;20118;-77
2021/03/26 04:44:51;;;;;;;70.13;33.40;;;;;;;1.34;77.35;100948.97;5116191;28;20039;-74
2021/03/26 04:47:33;;;;;;;70.93;32.40;;;;;;;1.35;76.88;100927.06;5116279;28;20110;-76
2021/03/26 04:50:11;;;;;;;70.45;32.80;;;;;;;1.40;76.88;100962.06;5115693;28;20244;-76
2021/03/26 04:53:18;;;;;;;69.25;31.75;;;;;;;1.39;77.46;100958.56;5115817;28;20062;-75
2021/03/26 04:55:52;;;;;;;68.85;31.98;;;;;;;1.48;76.96;100967.25;5115615;28;20035;-75
2021/03/26 04:58:25;;;;;;;68.15;31.50;;;;;;;1.50;76.61;100961.06;5115911;28;20031;-78
2021/03/26 05:01:14;;;;;;;70.43;30.77;;;;;;;1.53;76.70;100965.41;5115676;28;20031;-77
2021/03/26 05:03:46;;;;;;;69.20;32.75;;;;;;;1.43;76.52;100941.00;5103149;28;20028;-73
2021/03/26 05:06:19;;;;;;;71.60;32.33;;;;;;;1.66;76.27;100964.41;5115120;28;20027;-72
2021/03/26 05:08:51;;;;;;;70.43;33.55;;;;;;;1.61;75.55;100951.28;5115485;28;20031;-71
2021/03/26 05:11:19;;;;;;;68.35;31.83;;;;;;;1.75;75.56;100964.28;5097178;28;20055;-71
2021/03/26 05:14:02;;;;;;;70.22;31.85;;;;;;;1.72;75.42;100961.66;5096983;28;20358;-73
2021/03/26 05:16:49;;;;;;;67.35;31.65;;;;;;;1.71;74.69;100942.38;5097088;28;20598;-72
2021/03/26 05:19:22;;;;;;;64.45;32.05;;;;;;;1.62;75.15;100950.41;5096916;28;20047;-72
2021/03/26 05:22:09;;;;;;;68.63;32.83;;;;;;;1.77;74.95;100956.38;5096683;28;20100;-71
2021/03/26 05:24:50;;;;;;;71.53;32.15;;;;;;;1.91;74.13;100957.03;5114982;28;20106;-71
2021/03/26 05:27:16;;;;;;;68.75;32.72;;;;;;;1.91;74.14;100962.31;5114438;28;20019;-74
2021/03/26 05:29:43;;;;;;;68.10;32.22;;;;;;;2.09;74.14;100988.38;5115140;28;20042;-76
2021/03/26 05:32:19;;;;;;;68.57;31.92;;;;;;;2.30;73.15;100987.19;5114957;28;20092;-74
2021/03/26 05:34:52;;;;;;;60.78;30.23;;;;;;;2.49;72.29;100988.66;5115128;28;20073;-73
2021/03/26 05:37:29;;;;;;;63.47;30.13;;;;;;;2.48;72.25;100975.53;5114479;28;20430;-73
2021/03/26 05:40:44;;;;;;;62.72;30.10;;;;;;;2.66;71.51;100991.03;5114616;28;20039;-75
2021/03/26 05:43:32;;;;;;;59.15;29.38;;;;;;;2.68;71.53;100994.50;5114356;28;20110;-75
2021/03/26 05:46:17;;;;;;;57.28;28.67;;;;;;;2.67;71.16;100969.06;5114379;28;20047;-73
2021/03/26 05:48:57;;;;;;;59.17;28.80;;;;;;;2.90;71.19;101005.59;5114482;28;20039;-72
2021/03/26 05:51:40;;;;;;;57.63;30.48;;;;;;;3.07;70.58;100997.38;5114364;28;20034;-72
2021/03/26 05:54:34;;;;;;;61.10;29.33;;;;;;;3.16;70.10;100991.94;5113980;28;20055;-72
2021/03/26 05:57:21;;;;;;;61.00;29.58;;;;;;;3.24;70.09;100990.03;5114025;28;20028;-71
2021/03/26 06:00:01;;;;;;;56.65;28.63;;;;;;;3.32;69.39;101001.31;5095973;28;20119;-72
2021/03/26 06:02:35;;;;;;;60.17;26.98;;;;;;;3.38;69.61;100998.56;5114695;28;20020;-72
2021/03/26 06:05:10;;;;;;;62.58;28.20;;;;;;;3.46;69.72;100998.41;5113837;28;20042;-73
2021/03/26 06:07:47;;;;;;;59.63;29.38;;;;;;;3.62;69.17;101002.50;5114047;28;20085;-79
2021/03/26 06:10:25;;;;;;;61.97;27.90;;;;;;;3.63;68.88;100976.97;5113733;28;20031;-74
2021/03/26 06:12:51;;;;;;;57.83;28.80;;;;;;;3.72;68.08;101004.03;5113842;28;20542;-72
2021/03/26 06:15:19;;;;;;;56.97;29.15;;;;;;;3.73;68.40;101000.50;5113400;28;20028;-73
2021/03/26 06:18:21;;;;;;;57.17;27.50;;;;;;;3.71;68.23;100982.97;5113700;28;20079;-77
2021/03/26 06:20:54;;;;;;;59.20;29.33;;;;;;;4.15;67.33;101007.53;5040525;28;20050;-77
2021/03/26 06:23:31;;;;;;;58.25;30.05;;;;;;;4.03;67.12;101017.47;5113543;28;20549;-73
2021/03/26 06:26:18;;;;;;;54.22;27.65;;;;;;;3.88;66.65;100957.09;5113588;28;20213;-73
2021/03/26 06:28:51;;;;;;;57.95;28.98;;;;;;;4.27;66.37;101016.09;5113829;28;20055;-71
2021/03/26 06:31:47;;;;;;;56.63;28.70;;;;;;;4.55;65.81;101018.97;5113512;28;20028;-74
2021/03/26 06:34:30;;;;;;;61.67;29.20;;;;;;;4.54;65.59;101021.66;5113568;28;20452;-70
2021/03/26 06:37:30;;;;;;;53.78;28.10;;;;;;;4.69;65.05;101017.78;5113242;28;20465;-75
2021/03/26 06:39:55;;;;;;;55.30;29.23;;;;;;;4.64;65.63;101017.03;5096060;28;20429;-75
2021/03/26 06:42:20;;;;;;;59.53;28.92;;;;;;;4.77;65.47;101021.97;5113667;28;20063;-74
2021/03/26 06:45:23;;;;;;;59.22;30.02;;;;;;;4.89;65.59;101023.44;5113867;28;20114;-80
2021/03/26 06:48:00;;;;;;;56.92;28.75;;;;;;;4.95;64.74;101027.72;5113802;28;20038;-79
2021/03/26 06:50:34;;;;;;;58.00;28.50;;;;;;;5.26;64.05;101015.44;5113778;28;20036;-76
2021/03/26 06:53:18;;;;;;;58.42;29.20;;;;;;;5.57;62.92;101018.13;5113886;28;20032;-80
2021/03/26 06:56:28;;;;;;;52.90;27.70;;;;;;;5.83;61.42;101024.50;5113417;28;20098;-72
2021/03/26 06:59:12;;;;;;;53.30;25.75;;;;;;;5.80;61.46;101021.94;5112145;28;20099;-79
2021/03/26 07:02:05;;;;;;;59.22;28.60;;;;;;;5.88;61.42;101026.09;5109427;28;20066;-77
2021/03/26 07:04:59;;;;;;;52.28;28.95;;;;;;;5.99;60.73;101026.69;5112787;28;20033;-76
2021/03/26 07:07:43;;;;;;;55.60;27.45;;;;;;;5.85;61.41;101033.25;5113349;28;20028;-78
2021/03/26 07:10:34;;;;;;;49.85;26.17;;;;;;;5.75;60.51;101000.88;5113576;28;20397;-79
2021/03/26 07:13:21;;;;;;;50.10;25.80;;;;;;;6.08;60.11;101038.81;5113417;28;20408;-78
2021/03/26 07:15:56;;;;;;;47.85;26.70;;;;;;;6.31;59.90;101031.03;5113618;28;20172;-78
2021/03/26 07:18:52;;;;;;;51.78;27.35;;;;;;;6.34;59.25;101000.06;5112995;28;20090;-77
2021/03/26 07:21:35;;;;;;;47.95;25.45;;;;;;;6.64;58.46;101033.53;5113163;28;20424;-75
2021/03/26 07:24:20;;;;;;;49.65;25.98;;;;;;;6.67;58.39;101041.44;5094674;28;20096;-76
2021/03/26 07:26:54;;;;;;;50.17;27.60;;;;;;;6.60;59.18;101038.09;5111854;28;20478;-74
2021/03/26 07:29:44;;;;;;;55.15;28.48;;;;;;;6.61;59.05;101033.66;5113078;28;20028;-75
2021/03/26 07:32:37;;;;;;;52.03;26.83;;;;;;;6.89;58.12;101039.81;5113506;28;20466;-77
2021/03/26 07:35:46;;;;;;;55.15;27.63;;;;;;;6.72;58.02;101012.97;5113130;28;20043;-75
2021/03/26 07:38:35;;;;;;;48.92;26.92;;;;;;;6.79;57.65;101042.81;5113116;28;20123;-78
2021/03/26 07:41:01;;;;;;;51.63;27.00;;;;;;;6.93;57.47;101042.34;5113107;28;20055;-72
2021/03/26 07:43:54;;;;;;;54.80;28.15;;;;;;;7.07;56.71;101037.47;5112764;28;20070;-77
2021/03/26 07:46:26;;;;;;;50.92;27.60;;;;;;;7.16;56.66;101045.13;5113001;28;20032;-77
2021/03/26 07:49:25;;;;;;;52.45;28.75;;;;;;;7.20;56.69;101038.78;5112900;28;20032;-73
2021/03/26 07:52:15;;;;;;;50.75;28.27;;;;;;;7.28;56.41;101034.09;5116993;28;20111;-76
2021/03/26 07:54:55;;;;;;;50.72;27.88;;;;;;;7.41;56.03;101040.72;5116327;28;20027;-79
2021/03/26 07:57:42;;;;;;;52.97;29.35;;;;;;;7.53;56.28;101034.13;5116859;28;20042;-79
2021/03/26 08:00:10;;;;;;;54.20;28.58;;;;;;;7.72;55.28;101040.53;5098615;28;20035;-81
2021/03/26 08:02:39;;;;;;;53.38;29.42;;;;;;;7.55;55.55;101011.03;5098248;28;20179;-80
2021/03/26 08:05:43;;;;;;;51.88;29.33;;;;;;;7.74;54.90;101037.81;5116084;28;20084;-76
2021/03/26 08:08:43;;;;;;;63.13;30.58;;;;;;;7.77;55.30;101035.03;5116663;28;20035;-81
2021/03/26 08:11:36;;;;;;;56.63;30.77;;;;;;;7.89;55.24;101039.03;5116734;28;20036;-77
2021/03/26 08:14:04;;;;;;;55.45;29.98;;;;;;;8.03;54.95;101040.25;5097892;28;20031;-83
2021/03/26 08:16:48;;;;;;;57.58;30.58;;;;;;;8.25;54.88;101039.44;5116549;28;20032;-79
2021/03/26 08:19:32;;;;;;;;;;;;;;;8.32;54.79;101040.94;5117121;28;20023;-75
2021/03/26 08:22:00;;;;;;;62.35;30.58;;;;;;;8.43;54.42;101043.22;5116446;28;20006;-78
2021/03/26 08:24:39;;;;;;;58.33;32.13;;;;;;;8.64;53.40;101042.38;5116246;28;20031;-81
2021/03/26 08:27:24;;;;;;;59.35;33.08;;;;;;;8.73;53.39;101042.03;5116238;28;20031;-83
2021/03/26 08:30:02;;;;;;;57.22;30.85;;;;;;;8.80;53.52;101047.97;5116448;28;20040;-81
2021/03/26 08:33:04;;;;;;;55.90;30.15;;;;;;;9.00;53.13;101045.34;5116227;28;20024;-83
2021/03/26 08:35:57;;;;;;;59.33;28.10;;;;;;;9.07;52.86;101045.94;5115790;28;20456;-75
2021/03/26 08:38:53;;;;;;;60.38;31.38;;;;;;;9.10;52.50;101049.38;5117172;28;20482;-80
2021/03/26 08:41:26;;;;;;;51.90;28.60;;;;;;;8.98;52.73;101031.25;5101006;28;20426;-81
2021/03/26 08:43:55;;;;;;;56.42;29.77;;;;;;;9.17;52.52;101037.56;5097521;28;20042;-74
2021/03/26 08:46:26;;;;;;;64.07;31.27;;;;;;;9.31;52.31;101044.06;5115796;28;20039;-77
2021/03/26 08:49:03;;;;;;;64.22;32.58;;;;;;;9.38;52.22;101040.22;5097266;28;20031;-76
2021/03/26 08:51:54;;;;;;;59.50;31.50;;;;;;;9.52;52.23;101040.50;5097582;28;20035;-77
2021/03/26 08:54:45;;;;;;;61.40;31.08;;;;;;;9.80;51.52;101041.94;5097160;28;20024;-76
2021/03/26 08:57:32;;;;;;;62.45;28.95;;;;;;;9.79;50.57;101019.78;5097345;28;20028;-78
2021/03/26 09:00:15;;;;;;;62.13;29.75;;;;;;;9.98;50.72;101031.34;5115425;28;20432;-78
2021/03/26 09:03:09;;;;;;;57.83;30.37;;;;;;;10.22;49.73;101042.69;5115774;28;20032;-76
2021/03/26 09:05:46;;;;;;;62.63;31.08;;;;;;;10.29;49.21;101038.81;5115107;28;20248;-76
2021/03/26 09:08:43;;;;;;;65.82;32.88;;;;;;;10.29;49.56;101036.16;5097219;28;20044;-75
2021/03/26 09:11:42;;;;;;;62.05;32.15;;;;;;;10.36;49.43;101041.19;5079689;28;20043;-76
2021/03/26 09:14:26;;;;;;;60.55;30.88;;;;;;;10.43;49.42;101037.31;5096521;28;20031;-75
2021/03/26 09:16:54;;;;;;;;;;;;;;;10.45;48.86;101040.78;5097261;28;20047;-77
2021/03/26 09:19:42;;;;;;;58.25;27.30;;;;;;;10.65;48.34;101026.50;5115431;28;19915;-82
2021/03/26 09:22:23;;;;;;;63.10;29.17;;;;;;;10.72;47.49;101028.78;5115090;28;20496;-78
2021/03/26 09:25:02;;;;;;;60.58;29.67;;;;;;;10.81;47.97;101033.69;5115078;28;20035;-78
2021/03/26 09:27:38;;;;;;;62.00;31.33;;;;;;;10.85;48.05;101027.25;5114859;28;20055;-79
2021/03/26 09:30:16;;;;;;;58.22;29.35;;;;;;;11.01;47.59;101031.84;5097112;28;20028;-78
2021/03/26 09:32:56;;;;;;;58.38;27.83;;;;;;;10.77;47.24;100978.72;5114743;28;20067;-76
2021/03/26 09:35:44;;;;;;;63.25;30.52;;;;;;;10.98;47.73;101024.81;5114380;28;20032;-74
2021/03/26 09:38:09;;;;;;;58.05;28.23;;;;;;;11.06;47.66;101024.44;5115099;28;20032;-73
2021/03/26 09:40:45;;;;;;;56.63;29.27;;;;;;;11.23;47.56;101034.28;5114452;28;20042;-73
2021/03/26 09:43:28;;;;;;;56.83;28.67;;;;;;;11.40;46.79;101032.50;5114333;28;20040;-71
2021/03/26 09:46:00;;;;;;;57.40;30.63;;;;;;;11.41;46.64;101023.53;5096164;28;20031;-72
2021/03/26 09:48:56;;;;;;;62.67;30.15;;;;;;;11.55;46.78;101020.13;5114542;28;20102;-72
2021/03/26 09:51:46;;;;;;;61.58;28.13;;;;;;;11.59;46.85;101020.88;5096031;28;20024;-72
2021/03/26 09:54:25;;;;;;;60.15;29.65;;;;;;;11.59;46.91;101012.84;5096055;28;20035;-71
2021/03/26 09:57:13;;;;;;;58.33;29.17;;;;;;;11.69;46.40;101014.09;5114108;28;20121;-75
2021/03/26 10:00:03;;;;;;;53.83;28.27;;;;;;;11.67;46.50;101021.31;5114092;28;20030;-77
2021/03/26 10:02:35;;;;;;;59.60;30.08;;;;;;;11.73;46.47;101023.66;5114175;28;20143;-77
2021/03/26 10:05:17;;;;;;;57.22;28.67;;;;;;;11.68;46.32;101010.56;5114093;28;20032;-79
2021/03/26 10:08:06;;;;;;;51.22;27.88;;;;;;;11.79;46.49;101018.00;5114116;28;20080;-78
2021/03/26 10:13:34;;;;;;;52.13;27.73;;;;;;;11.83;46.42;101013.38;5095160;28;20470;-79
2021/03/26 10:16:05;;;;;;;55.50;28.42;;;;;;;11.91;46.14;101003.16;5042365;28;20475;-78
2021/03/26 10:18:42;;;;;;;61.03;28.42;;;;;;;11.94;45.87;100993.13;5095438;28;20476;-78
2021/03/26 10:21:27;;;;;;;59.67;30.00;;;;;;;12.00;45.68;100995.50;5113715;28;20031;-74
2021/03/26 10:24:11;;;;;;;59.75;30.67;;;;;;;12.08;46.08;101007.59;5095517;28;20035;-75
2021/03/26 10:27:00;;;;;;;57.60;29.60;;;;;;;12.25;45.71;101004.84;5113451;28;20032;-73
2021/03/26 10:29:47;;;;;;;54.15;28.83;;;;;;;12.09;45.35;100980.75;5113916;28;20031;-77
2021/03/26 10:32:22;;;;;;;57.65;29.25;;;;;;;12.24;45.82;100997.75;5095450;28;20034;-80
2021/03/26 10:34:49;;;;;;;63.78;30.27;;;;;;;12.37;45.61;100997.97;5119331;28;20023;-71
2021/03/26 10:37:26;;;;;;;61.28;29.08;;;;;;;12.50;45.14;101004.34;5116459;28;20035;-74
2021/03/26 10:40:03;;;;;;;62.70;29.40;;;;;;;12.52;45.08;100997.94;5114056;28;20035;-75
2021/03/26 10:42:53;;;;;;;56.33;29.52;;;;;;;12.47;45.13;100986.66;5115485;28;20051;-78
2021/03/26 10:45:39;;;;;;;62.67;30.25;;;;;;;12.59;45.18;100993.13;5113614;28;20043;-75
2021/03/26 10:48:10;;;;;;;60.35;31.15;;;;;;;12.77;44.51;100991.22;5095379;28;20039;-78
2021/03/26 10:50:44;;;;;;;58.35;31.63;;;;;;;12.59;44.54;100967.22;5113287;28;20535;-79
2021/03/26 10:53:17;;;;;;;60.20;32.53;;;;;;;12.55;44.62;100954.97;5113536;28;20076;-79
2021/03/26 10:55:56;;;;;;;62.38;30.83;;;;;;;12.78;44.47;100982.22;5113191;28;20036;-77
2021/03/26 10:58:30;;;;;;;58.25;29.60;;;;;;;12.90;43.93;100981.50;5113649;28;20470;-78
2021/03/26 11:01:14;;;;;;;62.42;29.52;;;;;;;12.82;44.45;100967.69;5095174;28;20496;-78
2021/03/26 11:03:50;;;;;;;59.03;30.27;;;;;;;12.78;44.05;100955.44;5113262;28;20047;-77
2021/03/26 11:06:31;;;;;;;60.15;31.75;;;;;;;12.79;44.12;100954.50;5113077;28;20411;-73
2021/03/26 11:09:05;;;;;;;62.83;31.60;;;;;;;12.82;43.63;100962.34;5113056;28;20024;-73
2021/03/26 11:11:43;;;;;;;56.90;30.60;;;;;;;12.79;43.39;100975.91;5113182;28;20027;-75
2021/03/26 11:14:26;;;;;;;54.03;30.42;;;;;;;12.80;44.11;100970.47;5113007;28;20443;-75
2021/03/26 11:17:13;;;;;;;62.05;31.15;;;;;;;12.88;44.38;100972.69;5113169;28;20062;-78
2021/03/26 11:20:06;;;;;;;62.97;31.23;;;;;;;13.02;44.04;100963.84;5117271;28;20036;-76
2021/03/26 11:22:34;;;;;;;65.15;32.22;;;;;;;13.11;43.76;100944.56;5094900;28;20124;-77
2021/03/26 11:25:10;;;;;;;59.20;31.35;;;;;;;13.23;43.82;100945.69;5116251;28;20039;-77
2021/03/26 11:27:45;;;;;;;62.83;31.63;;;;;;;13.23;49.72;100951.06;5116888;28;20028;-74
2021/03/26 11:30:17;;;;;;;60.10;31.75;;;;;;;13.00;49.38;100941.66;5117054;28;20386;-74
2021/03/26 11:32:47;;;;;;;57.08;29.67;;;;;;;12.80;47.04;100926.78;5117162;28;20051;-74
2021/03/26 11:35:18;;;;;;;58.55;31.48;;;;;;;12.70;47.10;100888.97;5115987;28;20040;-73
2021/03/26 11:37:50;;;;;;;63.47;32.40;;;;;;;12.93;47.28;100938.47;5117027;28;20035;-74
2021/03/26 11:40:19;;;;;;;69.53;33.67;;;;;;;12.91;46.13;100935.03;5117591;28;20024;-78
2021/03/26 11:43:08;;;;;;;63.03;33.22;;;;;;;12.82;45.23;100915.00;5117255;28;20063;-78
2021/03/26 11:45:42;;;;;;;63.22;29.52;;;;;;;12.98;45.94;100906.94;5117244;28;20043;-77
2021/03/26 11:48:10;;;;;;;60.22;31.52;;;;;;;13.11;45.53;100912.41;5123123;28;20470;-78
2021/03/26 11:50:42;;;;;;;63.72;30.95;;;;;;;13.17;46.32;100910.25;5133073;28;20024;-77
2021/03/26 11:53:46;;;;;;;61.67;32.10;;;;;;;13.28;43.97;100914.13;5128035;28;20357;-76
2021/03/26 11:56:11;;;;;;;;;;;;;;;13.18;44.59;100914.63;5105471;28;20038;-77
2021/03/26 11:59:00;;;;;;;57.15;29.45;;;;;;;13.30;44.11;100904.16;5116774;28;19912;-77
2021/03/26 12:01:43;;;;;;;53.53;29.88;;;;;;;13.31;44.66;100911.25;5087006;28;20065;-74
2021/03/26 12:04:18;;;;;;;55.47;30.52;;;;;;;13.30;44.37;100898.81;5116638;28;20035;-80
2021/03/26 12:06:58;;;;;;;57.45;30.85;;;;;;;13.38;44.18;100909.91;5099188;28;20040;-76